createdAt,value
2023-10-29T00:01:40.790Z,10.90
2023-10-29T00:04:08.054Z,10.90
2023-10-29T00:06:35.958Z,10.90
2023-10-29T00:09:03.102Z,10.80
2023-10-29T00:11:30.453Z,10.80
2023-10-29T00:13:57.850Z,10.90
2023-10-29T00:16:24.960Z,10.90
2023-10-29T00:18:52.024Z,10.90
2023-10-29T00:21:19.137Z,10.80
2023-10-29T00:23:46.309Z,10.80
2023-10-29T00:26:13.447Z,10.80
2023-10-29T00:28:44.599Z,10.80
2023-10-29T00:31:11.698Z,10.80
2023-10-29T00:33:39.676Z,10.70
2023-10-29T00:36:07.165Z,10.60
2023-10-29T00:38:34.338Z,10.70
2023-10-29T00:41:01.380Z,10.60
2023-10-29T00:43:28.359Z,10.60
2023-10-29T00:45:55.861Z,10.50
2023-10-29T00:48:23.846Z,10.50
2023-10-29T00:50:51.342Z,10.50
2023-10-29T00:53:20.199Z,10.40
2023-10-29T00:55:48.971Z,10.40
2023-10-29T00:58:18.006Z,10.30
2023-10-29T01:00:46.801Z,10.30
2023-10-29T01:03:13.936Z,10.30
2023-10-29T01:05:41.407Z,10.30
2023-10-29T01:08:09.121Z,10.20
2023-10-29T01:10:36.187Z,10.20
2023-10-29T01:13:03.344Z,10.10
2023-10-29T01:15:30.551Z,10.10
2023-10-29T01:17:57.794Z,10.10
2023-10-29T01:20:25.069Z,10.00
2023-10-29T01:22:52.602Z,10.00
2023-10-29T01:25:19.626Z,10.00
2023-10-29T01:27:46.768Z,9.90
2023-10-29T01:30:15.019Z,9.90
2023-10-29T01:32:42.324Z,9.90
2023-10-29T01:35:10.049Z,10.00
2023-10-29T01:37:37.074Z,10.00
2023-10-29T01:40:05.057Z,10.00
2023-10-29T01:42:32.062Z,10.00
2023-10-29T01:44:59.283Z,10.10
2023-10-29T01:47:26.732Z,10.10
2023-10-29T01:49:54.034Z,10.10
2023-10-29T01:52:21.077Z,10.10
2023-10-29T01:54:48.279Z,10.20
2023-10-29T01:57:15.423Z,10.20
2023-10-29T01:59:42.586Z,10.20
2023-10-29T02:02:10.414Z,10.20
2023-10-29T02:04:37.664Z,10.20
2023-10-29T02:07:04.973Z,10.30
2023-10-29T02:09:32.343Z,10.30
2023-10-29T02:11:59.463Z,10.30
2023-10-29T02:14:27.095Z,10.30
2023-10-29T02:16:54.201Z,10.30
2023-10-29T02:19:21.370Z,10.30
2023-10-29T02:21:48.444Z,10.30
2023-10-29T02:24:15.578Z,10.40
2023-10-29T02:26:42.718Z,10.30
2023-10-29T02:29:10.012Z,10.40
2023-10-29T02:31:37.620Z,10.30
2023-10-29T02:34:04.847Z,10.40
2023-10-29T02:36:31.859Z,10.40
2023-10-29T02:38:59.373Z,10.40
2023-10-29T02:41:26.567Z,10.40
2023-10-29T02:43:56.220Z,10.40
2023-10-29T02:46:23.296Z,10.40
2023-10-29T02:48:50.300Z,10.40
2023-10-29T02:51:17.473Z,10.40
2023-10-29T02:53:44.701Z,10.40
2023-10-29T02:56:11.865Z,10.40
2023-10-29T02:58:38.950Z,10.40
2023-10-29T03:01:08.346Z,10.40
2023-10-29T03:03:39.542Z,10.40
2023-10-29T03:06:07.956Z,10.40
2023-10-29T03:08:36.629Z,10.40
2023-10-29T03:11:04.647Z,10.40
2023-10-29T03:13:32.428Z,10.40
2023-10-29T03:15:59.683Z,10.50
2023-10-29T03:18:27.005Z,10.40
2023-10-29T03:20:55.507Z,10.40
2023-10-29T03:23:25.080Z,10.40
2023-10-29T03:25:52.749Z,10.40
2023-10-29T03:28:19.997Z,10.50
2023-10-29T03:30:47.129Z,10.50
2023-10-29T03:33:14.381Z,10.50
2023-10-29T03:35:42.183Z,10.50
2023-10-29T03:38:09.333Z,10.50
2023-10-29T03:40:38.371Z,10.50
2023-10-29T03:43:05.404Z,10.50
2023-10-29T03:45:33.191Z,10.50
2023-10-29T03:48:01.523Z,10.50
2023-10-29T03:50:28.672Z,10.40
2023-10-29T03:52:55.681Z,10.40
2023-10-29T03:55:22.835Z,10.20
2023-10-29T03:57:49.857Z,10.20
2023-10-29T04:00:17.100Z,10.20
2023-10-29T04:02:44.273Z,10.10
2023-10-29T04:05:11.718Z,10.10
2023-10-29T04:07:39.064Z,10.00
2023-10-29T04:10:09.178Z,10.00
2023-10-29T04:12:36.407Z,9.90
2023-10-29T04:17:33.671Z,9.70
2023-10-29T04:20:00.848Z,9.70
2023-10-29T04:22:28.076Z,9.60
2023-10-29T04:24:55.064Z,9.60
2023-10-29T04:27:22.556Z,9.60
2023-10-29T04:29:49.836Z,9.60
2023-10-29T04:32:16.901Z,9.50
2023-10-29T04:34:44.679Z,9.50
2023-10-29T04:37:11.775Z,9.50
2023-10-29T04:39:39.793Z,9.50
2023-10-29T04:42:07.036Z,9.40
2023-10-29T04:44:35.150Z,9.40
2023-10-29T04:47:05.157Z,9.40
2023-10-29T04:49:32.290Z,9.40
2023-10-29T04:51:59.343Z,9.40
2023-10-29T04:54:26.422Z,9.40
2023-10-29T04:56:53.482Z,9.50
2023-10-29T04:59:20.723Z,9.50
2023-10-29T05:01:47.807Z,9.50
2023-10-29T05:04:15.924Z,9.50
2023-10-29T05:06:43.107Z,9.60
2023-10-29T05:09:10.841Z,9.60
2023-10-29T05:11:38.042Z,9.60
2023-10-29T05:14:05.383Z,9.60
2023-10-29T05:16:32.741Z,9.60
2023-10-29T05:19:01.381Z,9.70
2023-10-29T05:21:29.067Z,9.70
2023-10-29T05:23:56.227Z,9.70
2023-10-29T05:26:24.100Z,9.70
2023-10-29T05:28:51.382Z,9.70
2023-10-29T05:31:19.780Z,9.70
2023-10-29T05:33:47.459Z,9.80
2023-10-29T05:36:14.531Z,9.80
2023-10-29T05:38:41.694Z,9.80
2023-10-29T05:41:08.699Z,9.80
2023-10-29T05:43:37.966Z,9.80
2023-10-29T05:46:05.205Z,9.80
2023-10-29T05:48:32.321Z,9.80
2023-10-29T05:50:59.872Z,9.80
2023-10-29T05:53:27.051Z,9.80
2023-10-29T05:55:56.044Z,9.80
2023-10-29T05:58:27.539Z,9.80
2023-10-29T06:00:54.779Z,9.80
2023-10-29T06:03:22.067Z,9.80
2023-10-29T06:05:49.249Z,9.80
2023-10-29T06:08:16.404Z,9.80
2023-10-29T06:10:44.692Z,9.70
2023-10-29T06:13:11.897Z,9.70
2023-10-29T06:15:38.939Z,9.70
2023-10-29T06:18:07.876Z,9.80
2023-10-29T06:20:35.367Z,9.80
2023-10-29T06:23:02.450Z,9.80
2023-10-29T06:25:29.447Z,9.80
2023-10-29T06:27:56.556Z,9.80
2023-10-29T06:30:25.554Z,9.80
2023-10-29T06:32:53.312Z,9.80
2023-10-29T06:35:20.427Z,9.80
2023-10-29T06:37:47.673Z,9.80
2023-10-29T06:40:14.722Z,9.90
2023-10-29T06:42:41.869Z,9.90
2023-10-29T06:45:09.218Z,9.90
2023-10-29T06:47:36.307Z,10.00
2023-10-29T06:50:03.993Z,9.90
2023-10-29T06:52:31.267Z,10.00
2023-10-29T06:54:58.491Z,10.00
2023-10-29T06:57:25.590Z,10.00
2023-10-29T06:59:52.780Z,10.00
2023-10-29T07:02:19.962Z,10.00
2023-10-29T07:04:47.214Z,10.00
2023-10-29T07:07:14.857Z,10.00
2023-10-29T07:09:42.144Z,10.00
2023-10-29T07:12:09.455Z,10.00
2023-10-29T07:14:37.764Z,10.10
2023-10-29T07:17:04.830Z,10.10
2023-10-29T07:19:31.915Z,10.10
2023-10-29T07:21:58.955Z,10.20
2023-10-29T07:24:26.044Z,10.20
2023-10-29T07:26:53.156Z,10.20
2023-10-29T07:29:20.308Z,10.20
2023-10-29T07:31:48.477Z,10.30
2023-10-29T07:34:15.587Z,10.30
2023-10-29T07:36:44.215Z,10.40
2023-10-29T07:39:12.066Z,10.40
2023-10-29T07:41:39.337Z,10.50
2023-10-29T07:44:06.935Z,10.60
2023-10-29T07:46:34.026Z,10.60
2023-10-29T07:49:01.155Z,10.70
2023-10-29T07:51:28.260Z,10.80
2023-10-29T07:53:56.064Z,10.90
2023-10-29T07:56:24.448Z,11.00
2023-10-29T07:58:53.147Z,11.10
2023-10-29T08:01:20.348Z,11.20
2023-10-29T08:03:51.621Z,11.20
2023-10-29T08:06:19.090Z,11.20
2023-10-29T08:08:46.188Z,11.30
2023-10-29T08:11:23.093Z,11.40
2023-10-29T08:13:52.096Z,11.50
2023-10-29T08:16:20.335Z,11.60
2023-10-29T08:18:47.574Z,11.70
2023-10-29T08:21:14.785Z,11.80
2023-10-29T08:23:41.978Z,11.90
2023-10-29T08:26:09.240Z,11.90
2023-10-29T08:28:37.200Z,12.00
2023-10-29T08:31:05.469Z,12.00
2023-10-29T08:33:32.720Z,12.10
2023-10-29T08:35:59.920Z,12.10
2023-10-29T08:38:27.085Z,12.10
2023-10-29T08:40:54.385Z,12.10
2023-10-29T08:43:21.443Z,12.10
2023-10-29T08:45:48.739Z,12.20
2023-10-29T08:48:16.021Z,12.20
2023-10-29T08:50:43.730Z,12.30
2023-10-29T08:53:10.755Z,12.30
2023-10-29T08:55:37.924Z,12.30
2023-10-29T08:58:04.989Z,12.40
2023-10-29T09:00:45.529Z,12.50
2023-10-29T09:03:15.047Z,12.50
2023-10-29T09:05:44.927Z,12.60
2023-10-29T09:08:12.727Z,12.70
2023-10-29T09:10:44.008Z,12.80
2023-10-29T09:13:11.916Z,12.80
2023-10-29T09:15:39.266Z,12.90
2023-10-29T09:18:07.772Z,13.00
2023-10-29T09:20:34.998Z,13.00
2023-10-29T09:23:02.047Z,13.00
2023-10-29T09:25:29.105Z,13.00
2023-10-29T09:27:56.282Z,13.00
2023-10-29T09:30:23.446Z,13.00
2023-10-29T09:32:50.761Z,13.10
2023-10-29T09:35:18.884Z,13.20
2023-10-29T09:37:46.084Z,13.20
2023-10-29T09:40:15.518Z,13.30
2023-10-29T09:42:54.434Z,13.20
2023-10-29T09:45:26.523Z,13.10
2023-10-29T09:47:54.836Z,13.20
2023-10-29T09:50:26.113Z,13.20
2023-10-29T09:52:54.525Z,13.30
2023-10-29T09:55:23.725Z,13.30
2023-10-29T09:57:51.577Z,13.40
2023-10-29T10:00:19.343Z,13.40
2023-10-29T10:02:52.124Z,13.40
2023-10-29T10:05:21.526Z,13.40
2023-10-29T10:07:49.505Z,13.50
2023-10-29T10:10:17.136Z,13.50
2023-10-29T10:12:51.651Z,13.60
2023-10-29T10:15:20.521Z,13.60
2023-10-29T10:18:01.807Z,13.70
2023-10-29T10:20:30.282Z,13.70
2023-10-29T10:23:06.310Z,13.70
2023-10-29T10:25:34.634Z,13.80
2023-10-29T10:28:03.529Z,13.80
2023-10-29T10:30:40.373Z,13.90
2023-10-29T10:33:15.046Z,13.90
2023-10-29T10:35:46.098Z,14.00
2023-10-29T10:38:15.558Z,14.10
2023-10-29T10:40:42.950Z,14.10
2023-10-29T10:43:10.584Z,14.10
2023-10-29T10:45:38.451Z,14.30
2023-10-29T10:48:06.856Z,14.40
2023-10-29T10:50:35.778Z,14.50
2023-10-29T10:53:04.356Z,14.60
2023-10-29T10:58:06.110Z,14.60
2023-10-29T11:00:33.823Z,14.60
2023-10-29T11:03:09.066Z,14.70
2023-10-29T11:05:42.175Z,14.70
2023-10-29T11:08:09.309Z,14.80
2023-10-29T11:10:36.489Z,14.90
2023-10-29T11:13:22.597Z,14.90
2023-10-29T11:15:50.702Z,14.80
2023-10-29T11:18:29.739Z,14.70
2023-10-29T11:20:57.885Z,14.80
2023-10-29T11:23:27.433Z,14.80
2023-10-29T11:26:33.027Z,14.70
2023-10-29T11:29:00.271Z,14.70
2023-10-29T11:31:27.495Z,14.60
2023-10-29T11:33:57.776Z,14.60
2023-10-29T11:36:32.061Z,14.70
2023-10-29T11:39:17.586Z,14.70
2023-10-29T11:41:48.119Z,14.70
2023-10-29T11:44:24.414Z,14.60
2023-10-29T11:46:57.495Z,14.60
2023-10-29T11:49:27.813Z,14.70
2023-10-29T11:51:55.872Z,14.70
2023-10-29T11:54:23.315Z,14.70
2023-10-29T11:56:51.703Z,14.80
2023-10-29T11:59:18.956Z,14.80
2023-10-29T12:01:46.393Z,14.80
2023-10-29T12:04:13.827Z,14.80
2023-10-29T12:06:49.404Z,14.70
2023-10-29T12:09:24.965Z,14.80
2023-10-29T12:11:53.960Z,14.90
2023-10-29T12:14:48.749Z,15.00
2023-10-29T12:17:16.290Z,15.10
2023-10-29T12:19:46.094Z,15.10
2023-10-29T12:22:28.922Z,15.10
2023-10-29T12:25:01.851Z,15.10
2023-10-29T12:27:30.082Z,15.00
2023-10-29T12:29:58.010Z,15.00
2023-10-29T12:32:26.586Z,15.00
2023-10-29T12:34:55.490Z,15.00
2023-10-29T12:37:22.652Z,14.90
2023-10-29T12:39:52.941Z,15.00
2023-10-29T12:42:20.778Z,15.00
2023-10-29T12:44:57.300Z,14.90
2023-10-29T12:47:24.748Z,14.80
2023-10-29T12:50:04.640Z,14.70
2023-10-29T12:52:32.032Z,14.70
2023-10-29T12:54:59.603Z,14.60
2023-10-29T12:57:26.674Z,14.70
2023-10-29T12:59:53.766Z,14.60
2023-10-29T13:02:23.427Z,14.60
2023-10-29T13:04:50.890Z,14.60
2023-10-29T13:07:18.718Z,14.80
2023-10-29T13:09:49.501Z,14.90
2023-10-29T13:12:17.413Z,14.80
2023-10-29T13:14:46.916Z,14.90
2023-10-29T13:17:16.121Z,15.00
2023-10-29T13:19:44.108Z,15.00
2023-10-29T13:22:11.567Z,14.90
2023-10-29T13:24:38.892Z,14.80
2023-10-29T13:27:08.208Z,14.90
2023-10-29T13:29:37.402Z,14.90
2023-10-29T13:32:05.187Z,14.80
2023-10-29T13:34:32.342Z,14.90
2023-10-29T13:36:59.412Z,14.80
2023-10-29T13:39:29.208Z,14.80
2023-10-29T13:41:56.776Z,14.80
2023-10-29T13:44:24.484Z,14.80
2023-10-29T13:46:51.738Z,15.00
2023-10-29T13:49:19.051Z,15.00
2023-10-29T13:51:48.151Z,15.00
2023-10-29T13:54:15.525Z,15.10
2023-10-29T13:56:42.741Z,15.20
2023-10-29T13:59:10.090Z,15.20
2023-10-29T14:01:37.328Z,15.20
2023-10-29T14:04:04.568Z,15.20
2023-10-29T14:06:32.998Z,15.20
2023-10-29T14:09:00.965Z,15.10
2023-10-29T14:11:28.338Z,15.10
2023-10-29T14:13:57.390Z,15.00
2023-10-29T14:16:38.687Z,15.00
2023-10-29T14:19:10.056Z,15.10
2023-10-29T14:21:37.579Z,15.10
2023-10-29T14:24:08.082Z,15.10
2023-10-29T14:26:35.930Z,15.00
2023-10-29T14:29:03.018Z,15.00
2023-10-29T14:31:30.723Z,15.00
2023-10-29T14:33:58.412Z,15.00
2023-10-29T14:36:25.513Z,15.00
2023-10-29T14:38:52.600Z,15.00
2023-10-29T14:41:19.627Z,15.00
2023-10-29T14:43:46.771Z,14.90
2023-10-29T14:46:13.983Z,14.90
2023-10-29T14:48:41.476Z,14.80
2023-10-29T14:51:08.646Z,14.80
2023-10-29T14:53:35.688Z,14.70
2023-10-29T14:56:03.045Z,14.70
2023-10-29T14:58:30.697Z,14.60
2023-10-29T15:00:57.935Z,14.60
2023-10-29T15:03:25.120Z,14.50
2023-10-29T15:05:52.551Z,14.50
2023-10-29T15:08:19.666Z,14.50
2023-10-29T15:10:53.891Z,14.50
2023-10-29T15:13:21.575Z,14.50
2023-10-29T15:15:48.870Z,14.50
2023-10-29T15:18:16.402Z,14.50
2023-10-29T15:20:54.445Z,14.50
2023-10-29T15:23:27.691Z,14.50
2023-10-29T15:25:54.698Z,14.40
2023-10-29T15:28:21.862Z,14.30
2023-10-29T15:30:48.875Z,14.30
2023-10-29T15:33:16.020Z,14.30
2023-10-29T15:35:43.212Z,14.20
2023-10-29T15:38:11.241Z,14.20
2023-10-29T15:40:38.439Z,14.20
2023-10-29T15:43:05.753Z,14.20
2023-10-29T15:45:33.113Z,14.10
2023-10-29T15:48:00.787Z,14.10
2023-10-29T15:50:27.910Z,14.00
2023-10-29T15:52:55.026Z,14.00
2023-10-29T15:55:22.099Z,14.00
2023-10-29T15:57:49.121Z,14.00
2023-10-29T16:00:16.573Z,13.90
2023-10-29T16:02:43.825Z,14.00
2023-10-29T16:05:10.995Z,13.90
2023-10-29T16:07:38.117Z,13.90
2023-10-29T16:10:07.081Z,13.80
2023-10-29T16:12:34.173Z,13.80
2023-10-29T16:15:03.070Z,13.80
2023-10-29T16:17:30.306Z,13.80
2023-10-29T16:19:57.617Z,13.80
2023-10-29T16:22:25.652Z,13.80
2023-10-29T16:24:52.678Z,13.80
2023-10-29T16:27:19.805Z,13.80
2023-10-29T16:29:46.871Z,13.80
2023-10-29T16:32:13.928Z,13.80
2023-10-29T16:34:42.043Z,13.70
2023-10-29T16:37:09.097Z,13.70
2023-10-29T16:39:36.387Z,13.70
2023-10-29T16:42:04.234Z,13.70
2023-10-29T16:44:31.670Z,13.70
2023-10-29T16:46:59.617Z,13.70
2023-10-29T16:49:27.605Z,13.70
2023-10-29T16:51:54.929Z,13.60
2023-10-29T16:54:22.238Z,13.60
2023-10-29T16:56:49.434Z,13.60
2023-10-29T16:59:16.789Z,13.70
2023-10-29T17:01:43.892Z,13.60
2023-10-29T17:04:11.357Z,13.60
2023-10-29T17:06:38.428Z,13.70
2023-10-29T17:09:05.688Z,13.70
2023-10-29T17:11:32.785Z,13.70
2023-10-29T17:13:59.917Z,13.70
2023-10-29T17:16:26.938Z,13.70
2023-10-29T17:18:54.712Z,13.70
2023-10-29T17:21:22.213Z,13.60
2023-10-29T17:23:49.426Z,13.60
2023-10-29T17:26:18.429Z,13.60
2023-10-29T17:28:46.599Z,13.60
2023-10-29T17:31:18.582Z,13.60
2023-10-29T17:33:47.003Z,13.60
2023-10-29T17:36:15.953Z,13.70
2023-10-29T17:38:43.968Z,13.70
2023-10-29T17:41:19.153Z,13.70
2023-10-29T17:43:47.309Z,13.80
2023-10-29T17:46:20.316Z,13.80
2023-10-29T17:48:49.324Z,13.80
2023-10-29T17:51:16.700Z,13.80
2023-10-29T17:53:47.888Z,13.80
2023-10-29T17:56:17.857Z,13.80
2023-10-29T17:58:45.037Z,13.80
2023-10-29T18:01:12.214Z,13.80
2023-10-29T18:03:39.554Z,13.80
2023-10-29T18:06:23.317Z,13.80
2023-10-29T18:08:50.794Z,13.70
2023-10-29T18:11:20.465Z,13.60
2023-10-29T18:13:47.567Z,13.60
2023-10-29T18:16:14.745Z,13.50
2023-10-29T18:18:41.899Z,13.50
2023-10-29T18:21:09.206Z,13.50
2023-10-29T18:23:36.526Z,13.50
2023-10-29T18:26:04.269Z,13.50
2023-10-29T18:28:32.077Z,13.50
2023-10-29T18:31:04.281Z,13.50
2023-10-29T18:33:32.935Z,13.50
2023-10-29T18:36:11.018Z,13.50
2023-10-29T18:38:38.499Z,13.50
2023-10-29T18:41:19.882Z,13.50
2023-10-29T18:43:47.740Z,13.60
2023-10-29T18:46:16.263Z,13.50
2023-10-29T18:48:43.586Z,13.50
2023-10-29T18:51:10.855Z,13.60
2023-10-29T18:53:37.956Z,13.60
2023-10-29T18:56:05.712Z,13.60
2023-10-29T18:58:32.763Z,13.60
2023-10-29T19:01:10.698Z,13.60
2023-10-29T19:03:39.081Z,13.60
2023-10-29T19:06:10.180Z,13.70
2023-10-29T19:08:38.282Z,13.60
2023-10-29T19:11:10.348Z,13.70
2023-10-29T19:13:37.652Z,13.70
2023-10-29T19:16:07.759Z,13.60
2023-10-29T19:18:35.701Z,13.70
2023-10-29T19:21:03.271Z,13.70
2023-10-29T19:23:32.320Z,13.70
2023-10-29T19:26:02.410Z,13.70
2023-10-29T19:28:29.466Z,13.70
2023-10-29T19:31:16.851Z,13.70
2023-10-29T19:33:43.851Z,13.80
2023-10-29T19:36:12.212Z,13.80
2023-10-29T19:38:39.911Z,13.80
2023-10-29T19:41:07.193Z,13.80
2023-10-29T19:43:34.517Z,13.80
2023-10-29T19:46:02.046Z,13.80
2023-10-29T19:48:32.515Z,13.80
2023-10-29T19:51:01.336Z,13.80
2023-10-29T19:53:29.588Z,13.80
2023-10-29T19:55:57.326Z,13.80
2023-10-29T19:58:24.916Z,13.80
2023-10-29T20:00:52.524Z,13.70
2023-10-29T20:03:19.765Z,13.70
2023-10-29T20:05:47.116Z,13.70
2023-10-29T20:08:14.546Z,13.70
2023-10-29T20:10:41.984Z,13.70
2023-10-29T20:13:09.083Z,13.70
2023-10-29T20:15:36.270Z,13.60
2023-10-29T20:18:06.456Z,13.60
2023-10-29T20:20:36.465Z,13.60
2023-10-29T20:23:05.254Z,13.60
2023-10-29T20:25:32.581Z,13.60
2023-10-29T20:27:59.563Z,13.50
2023-10-29T20:30:26.715Z,13.60
2023-10-29T20:32:54.040Z,13.60
2023-10-29T20:35:21.319Z,13.60
2023-10-29T20:37:48.488Z,13.60
2023-10-29T20:40:15.663Z,13.60
2023-10-29T20:42:42.798Z,13.60
2023-10-29T20:45:10.139Z,13.60
2023-10-29T20:47:37.279Z,13.60
2023-10-29T20:50:06.644Z,13.50
2023-10-29T20:52:33.966Z,13.50
2023-10-29T20:55:01.019Z,13.50
2023-10-29T20:57:28.102Z,13.50
2023-10-29T20:59:55.248Z,13.40
2023-10-29T21:02:22.295Z,13.40
2023-10-29T21:04:49.719Z,13.40
2023-10-29T21:07:16.997Z,13.40
2023-10-29T21:09:45.394Z,13.40
2023-10-29T21:12:12.627Z,13.40
2023-10-29T21:14:39.695Z,13.40
2023-10-29T21:17:07.272Z,13.40
2023-10-29T21:19:34.330Z,13.40
2023-10-29T21:22:02.010Z,13.40
2023-10-29T21:24:29.734Z,13.40
2023-10-29T21:26:57.070Z,13.40
2023-10-29T21:29:24.550Z,13.30
2023-10-29T21:31:51.632Z,13.30
2023-10-29T21:34:18.723Z,13.30
2023-10-29T21:36:45.955Z,13.30
2023-10-29T21:39:14.047Z,13.30
2023-10-29T21:41:41.154Z,13.30
2023-10-29T21:44:08.252Z,13.20
2023-10-29T21:46:35.920Z,13.20
2023-10-29T21:49:02.983Z,13.20
2023-10-29T21:51:31.476Z,13.20
2023-10-29T21:53:59.117Z,13.20
2023-10-29T21:56:26.307Z,13.10
2023-10-29T21:58:53.556Z,13.10
2023-10-29T22:01:23.918Z,13.10
2023-10-29T22:03:51.545Z,13.10
2023-10-29T22:06:20.144Z,13.10
2023-10-29T22:08:47.295Z,13.10
2023-10-29T22:11:14.321Z,13.10
2023-10-29T22:13:41.453Z,13.10
2023-10-29T22:16:13.379Z,13.10
2023-10-29T22:18:41.045Z,13.10
2023-10-29T22:21:11.126Z,13.10
2023-10-29T22:23:38.955Z,13.10
2023-10-29T22:26:07.070Z,13.10
2023-10-29T22:28:34.251Z,13.10
2023-10-29T22:31:02.992Z,13.10
2023-10-29T22:33:31.265Z,13.10
2023-10-29T22:36:07.843Z,13.10
2023-10-29T22:38:36.658Z,13.00
2023-10-29T22:41:09.075Z,13.00
2023-10-29T22:43:36.781Z,13.00
2023-10-29T22:46:04.531Z,12.90
2023-10-29T22:48:32.151Z,12.90
2023-10-29T22:51:03.693Z,12.90
2023-10-29T22:53:30.874Z,12.90
2023-10-29T22:56:01.856Z,13.00
2023-10-29T22:58:29.784Z,12.90
2023-10-29T23:00:57.217Z,12.90
2023-10-29T23:03:25.814Z,12.90
2023-10-29T23:05:53.403Z,12.90
2023-10-29T23:08:20.386Z,12.90
2023-10-29T23:10:47.585Z,12.90
2023-10-29T23:13:14.702Z,12.80
2023-10-29T23:15:41.962Z,12.80
2023-10-29T23:18:09.040Z,12.80
2023-10-29T23:20:36.425Z,12.80
2023-10-29T23:23:04.540Z,12.80
2023-10-29T23:25:31.615Z,12.80
2023-10-29T23:27:58.625Z,12.70
2023-10-29T23:30:26.191Z,12.70
2023-10-29T23:32:53.322Z,12.70
2023-10-29T23:35:20.470Z,12.70
2023-10-29T23:37:47.531Z,12.60
2023-10-29T23:40:14.650Z,12.60
2023-10-29T23:42:41.949Z,12.50
2023-10-29T23:45:09.873Z,12.50
2023-10-29T23:47:36.999Z,12.50
2023-10-29T23:50:05.534Z,12.40
2023-10-29T23:52:32.811Z,12.40
2023-10-29T23:55:00.070Z,12.30
2023-10-29T23:57:28.504Z,12.30
2023-10-29T23:59:56.005Z,12.20
